CANO2: Clear Boggy Creek abv Caney Creek nr Caney, OK

                                SHEF ID:       CANO2     Clear Boggy Creek abv Caney Cree
STATION TYPE:
Regulating: Stage = 19.00, Flow = 2600

STAGE RIV-FLOW VOLTAGE BAT-LOAD
ft cfs volt volt
Ccp-Rev Ccp-Rev Ccp-Rev Ccp-Rev
(America/Chicago)
04/29 00:00 21.19 3420 12.67 ----
04/29 01:00 21.86 3670 12.66 ----
04/29 02:00 22.37 3870 12.55 ----
04/29 03:00 22.76 4020 12.61 ----
04/29 04:00 23.06 4130 12.60 ----
04/29 05:00 23.24 4200 12.59 ----
04/29 06:00 23.36 4250 12.57 ----
04/29 07:00 23.43 4280 12.57 ----
04/29 08:00 23.43 4280 12.63 ----
04/29 09:00 23.37 4260 12.88 ----
04/29 10:00 23.24 4200 13.43 ----
04/29 11:00 23.03 4120 13.53 ----
04/29 12:00 22.76 4020 13.74 ----
04/29 13:00 22.44 3890 13.76 ----
04/29 14:00 22.00 3720 13.73 ----
04/29 15:00 21.53 3540 13.80 ----
04/29 16:00 21.03 3360 13.74 ----
04/29 17:00 20.46 3140 13.64 ----
04/29 18:00 19.91 2940 13.52 ----
04/29 19:00 19.35 2730 13.38 ----
04/29 20:00 18.80 2530 13.18 ----
04/29 21:00 18.29 2350 13.01 ----
04/29 22:00 17.78 2160 12.86 ----
04/29 23:00 ---- ---- ---- ----
Data processed at Thu 30Apr2026 04:01 GMT

NOTICE: If you are parsing this page

Please convert to using our Data API. Starting early 2026 we will be migrating to: https://water.usace.army.mil with modern pages rendered in JavaScript. When this migration completes you will no longer be able to scrape this page! CWMSDataAPI (CDA)

Timeseries IDs (TSIDs)

TSIDs used from left to right in the data table
CANE.Stage.Inst.1Hour.0.Ccp-Rev
CANE.Flow.Inst.1Hour.0.Ccp-Rev
CANE.Volt-Battery.Inst.1Hour.0.Ccp-Rev
CANE.Volt-Battery Load.Inst.1Hour.0.Ccp-Rev

                            

All information presented herein is the property of the government of the United States of America and may be revised or deleted at any time without prior notice. Dissemination of this information without the expressed written consent of the Public Affairs Office, Tulsa District U.S. Army Corps of Engineers is strictly prohibited. These data are gathered electronically and, as presented, have NOT undergone any form of quality control. These data are NOT guaranteed to be valid or correct.